Time;durP1;ratioP1;P1;durP2;ratioP2;P2;SDS_P1;SDS_P2;PMS_P1;PMS_P2;Temp;Humidity;BMP_temperature;BMP_pressure;BME280_temperature;BME280_humidity;BME280_pressure;Samples;Min_cycle;Max_cycle;Signal;HPM_P1;HPM_P2
2022/10/01 00:00:19;;;;;;;9.17;6.03;;;12.30;99.90;;;;;;5098114;28;20190;-67
2022/10/01 00:02:45;;;;;;;6.40;4.93;;;12.30;99.90;;;;;;5101868;27;20299;-68
2022/10/01 00:05:12;;;;;;;8.30;6.37;;;12.40;99.90;;;;;;5104448;27;20192;-68
2022/10/01 00:07:43;;;;;;;6.63;5.83;;;12.50;99.90;;;;;;5082283;28;20216;-68
2022/10/01 00:10:11;;;;;;;6.97;5.60;;;12.50;99.90;;;;;;5108943;27;20248;-68
2022/10/01 00:12:38;;;;;;;7.20;4.78;;;12.50;99.90;;;;;;5078294;27;20538;-67
2022/10/01 00:15:08;;;;;;;5.10;4.63;;;12.50;99.90;;;;;;5115675;28;20184;-67
2022/10/01 00:17:35;;;;;;;6.25;5.10;;;12.50;99.90;;;;;;5115638;27;20183;-68
2022/10/01 00:20:02;;;;;;;12.80;6.13;;;12.50;99.90;;;;;;5088321;28;20245;-68
2022/10/01 00:22:31;;;;;;;7.17;5.60;;;12.40;99.90;;;;;;5080670;28;20208;-69
2022/10/01 00:24:58;;;;;;;6.27;5.53;;;12.40;99.90;;;;;;5080841;28;20271;-68
2022/10/01 00:27:26;;;;;;;6.73;4.60;;;12.40;99.90;;;;;;5111433;27;20769;-68
2022/10/01 00:29:52;;;;;;;7.07;4.57;;;12.30;99.90;;;;;;5081728;28;20276;-68
2022/10/01 00:32:21;;;;;;;4.83;4.43;;;12.30;99.90;;;;;;5112952;28;20218;-67
2022/10/01 00:34:47;;;;;;;4.10;3.70;;;12.30;99.90;;;;;;5080357;27;20584;-68
2022/10/01 00:37:16;;;;;;;3.83;3.53;;;12.40;99.90;;;;;;5099502;27;20566;-68
2022/10/01 00:39:43;;;;;;;4.33;3.57;;;12.30;99.90;;;;;;5082537;28;20692;-68
2022/10/01 00:42:17;;;;;;;4.00;3.60;;;12.40;99.90;;;;;;5110486;27;20307;-67
2022/10/01 00:44:43;;;;;;;4.43;3.47;;;12.30;99.90;;;;;;5106912;27;20535;-67
2022/10/01 00:47:32;;;;;;;3.50;3.13;;;12.30;99.90;;;;;;5106946;27;20192;-69
2022/10/01 00:50:41;;;;;;;4.07;3.07;;;12.20;99.90;;;;;;5105838;27;20264;-69
2022/10/01 00:53:10;;;;;;;3.00;2.80;;;12.30;99.90;;;;;;5106016;28;20199;-67
2022/10/01 00:55:56;;;;;;;3.87;2.90;;;12.20;99.90;;;;;;5092772;28;20186;-68
2022/10/01 00:58:23;;;;;;;3.10;2.53;;;12.20;99.90;;;;;;5080634;28;20181;-69
2022/10/01 01:00:52;;;;;;;3.42;3.13;;;12.20;99.90;;;;;;5086060;28;20279;-69
2022/10/01 01:03:17;;;;;;;3.13;2.80;;;12.30;99.90;;;;;;5080399;28;20204;-68
2022/10/01 01:05:45;;;;;;;3.28;2.47;;;12.30;99.90;;;;;;5087550;28;20195;-68
2022/10/01 01:08:10;;;;;;;2.80;2.60;;;12.30;99.90;;;;;;5063586;28;20215;-68
2022/10/01 01:10:58;;;;;;;3.30;3.00;;;12.30;99.90;;;;;;5086041;28;20226;-68
2022/10/01 01:13:39;;;;;;;3.53;3.00;;;12.30;99.90;;;;;;5113760;27;20309;-67
2022/10/01 01:16:11;;;;;;;3.23;1.93;;;12.30;99.90;;;;;;5114184;27;20180;-67
2022/10/01 01:19:21;;;;;;;3.70;2.13;;;12.30;99.90;;;;;;5114343;27;20172;-68
2022/10/01 01:21:55;;;;;;;2.38;2.17;;;12.20;99.90;;;;;;5099120;27;20211;-66
2022/10/01 01:24:44;;;;;;;3.03;2.10;;;12.30;99.90;;;;;;5105981;27;20276;-68
2022/10/01 01:27:27;;;;;;;3.03;2.38;;;12.40;99.90;;;;;;5087257;28;20178;-67
2022/10/01 01:30:03;;;;;;;2.67;2.47;;;12.40;99.90;;;;;;5097077;28;20533;-70
2022/10/01 01:33:01;;;;;;;3.30;2.73;;;12.40;99.90;;;;;;5098531;27;20186;-67
2022/10/01 01:35:32;;;;;;;2.10;1.98;;;12.30;99.90;;;;;;5089859;28;20178;-67
2022/10/01 01:38:03;;;;;;;3.72;2.15;;;12.30;99.90;;;;;;5101679;28;20272;-67
2022/10/01 01:40:31;;;;;;;2.08;1.95;;;12.30;99.90;;;;;;5114315;27;20214;-68
2022/10/01 01:42:58;;;;;;;4.03;2.47;;;12.30;99.90;;;;;;5100537;27;20219;-68
2022/10/01 01:45:29;;;;;;;3.70;2.15;;;12.40;99.90;;;;;;5107666;27;20184;-68
2022/10/01 01:47:57;;;;;;;3.47;2.40;;;12.40;99.90;;;;;;5114251;27;20184;-67
2022/10/01 01:50:25;;;;;;;1.85;1.63;;;12.40;99.90;;;;;;5078353;28;20203;-68
2022/10/01 01:52:53;;;;;;;2.50;1.90;;;12.40;99.90;;;;;;5098624;28;20291;-68
2022/10/01 01:55:24;;;;;;;1.73;1.52;;;12.40;99.90;;;;;;5071261;28;20184;-67
2022/10/01 01:57:50;;;;;;;1.90;1.80;;;12.50;99.90;;;;;;5092707;28;20183;-67
2022/10/01 02:00:16;;;;;;;1.35;1.35;;;12.40;99.90;;;;;;5093452;28;20191;-68
2022/10/01 02:02:48;;;;;;;1.40;1.30;;;12.40;99.90;;;;;;5091707;28;20215;-68
2022/10/01 02:05:18;;;;;;;1.42;1.40;;;12.40;99.90;;;;;;5102308;28;20220;-69
2022/10/01 02:07:56;;;;;;;2.08;1.90;;;12.40;99.90;;;;;;5109436;27;20210;-69
2022/10/01 02:10:46;;;;;;;1.73;1.58;;;12.40;99.90;;;;;;5112384;28;20187;-68
2022/10/01 02:13:24;;;;;;;1.63;1.52;;;12.30;99.90;;;;;;5106729;28;20176;-70
2022/10/01 02:16:05;;;;;;;2.65;1.70;;;12.30;99.90;;;;;;5109472;27;20184;-68
2022/10/01 02:18:39;;;;;;;3.80;1.23;;;12.30;99.90;;;;;;5090757;28;20203;-66
2022/10/01 02:21:26;;;;;;;2.43;1.50;;;12.30;99.90;;;;;;5094051;28;20638;-68
2022/10/01 02:24:01;;;;;;;2.20;1.83;;;12.20;99.90;;;;;;5089449;28;20282;-68
2022/10/01 02:26:29;;;;;;;1.42;1.33;;;12.40;99.90;;;;;;5112448;28;20190;-68
2022/10/01 02:29:00;;;;;;;1.90;1.80;;;12.40;99.90;;;;;;5110342;28;20548;-66
2022/10/01 02:31:28;;;;;;;1.58;1.48;;;12.50;99.90;;;;;;5106769;28;20187;-67
2022/10/01 02:33:56;;;;;;;1.98;1.77;;;12.50;99.90;;;;;;5119479;28;20211;-68
2022/10/01 02:36:24;;;;;;;1.85;1.75;;;12.50;99.90;;;;;;5090876;28;20207;-68
2022/10/01 02:38:52;;;;;;;1.48;1.38;;;12.60;99.90;;;;;;5075388;28;20184;-68
2022/10/01 02:41:23;;;;;;;1.77;1.67;;;12.60;99.90;;;;;;5073121;28;20184;-66
2022/10/01 02:43:56;;;;;;;1.00;0.98;;;12.60;99.90;;;;;;5090707;28;20620;-67
2022/10/01 02:46:33;;;;;;;1.02;1.00;;;12.70;99.90;;;;;;5109561;28;20179;-67
2022/10/01 02:49:01;;;;;;;2.00;1.85;;;12.70;99.90;;;;;;5113089;28;20190;-67
2022/10/01 02:51:33;;;;;;;1.13;0.98;;;12.70;99.90;;;;;;5104908;28;20209;-68
2022/10/01 02:54:28;;;;;;;1.38;1.00;;;12.80;99.90;;;;;;5096899;28;20548;-68
2022/10/01 02:59:38;;;;;;;0.95;0.95;;;12.90;99.90;;;;;;5094144;28;20233;-66
2022/10/01 03:02:04;;;;;;;0.80;0.80;;;12.80;99.90;;;;;;5059550;28;20216;-68
2022/10/01 03:04:30;;;;;;;0.80;0.80;;;12.80;99.90;;;;;;5091915;28;20183;-68
2022/10/01 03:07:02;;;;;;;1.38;1.20;;;12.90;99.90;;;;;;5091100;28;20176;-66
2022/10/01 03:09:29;;;;;;;1.35;1.25;;;12.80;99.90;;;;;;5089704;28;20172;-67
2022/10/01 03:11:54;;;;;;;3.13;1.50;;;12.90;99.90;;;;;;5094111;27;20207;-68
2022/10/01 03:14:20;;;;;;;1.63;1.50;;;13.00;99.90;;;;;;5079189;28;20549;-69
2022/10/01 03:16:45;;;;;;;2.55;2.35;;;13.00;99.90;;;;;;5079791;28;20235;-68
2022/10/01 03:19:11;;;;;;;2.40;2.20;;;13.10;99.90;;;;;;5078459;28;20185;-68
2022/10/01 03:21:37;;;;;;;2.33;2.17;;;13.10;99.90;;;;;;5075792;28;20653;-70
2022/10/01 03:24:02;;;;;;;2.13;1.92;;;13.00;99.90;;;;;;5106993;28;20661;-68
2022/10/01 03:26:28;;;;;;;2.22;2.13;;;13.10;99.90;;;;;;5091978;28;20188;-68
2022/10/01 03:28:54;;;;;;;2.63;2.42;;;13.20;99.90;;;;;;5066562;28;20185;-68
2022/10/01 03:31:19;;;;;;;2.92;2.72;;;13.20;99.90;;;;;;5114303;28;20188;-68
2022/10/01 03:33:45;;;;;;;2.47;2.28;;;13.20;99.90;;;;;;5105135;28;20249;-68
2022/10/01 03:36:11;;;;;;;2.30;2.20;;;13.30;99.90;;;;;;5096631;28;20202;-68
2022/10/01 03:38:36;;;;;;;4.40;2.28;;;13.30;99.90;;;;;;5095544;28;20192;-68
2022/10/01 03:41:02;;;;;;;2.55;2.35;;;13.40;99.90;;;;;;5095215;28;20212;-68
2022/10/01 03:43:27;;;;;;;2.80;2.60;;;13.40;99.90;;;;;;5112864;28;20210;-68
2022/10/01 03:45:54;;;;;;;2.17;1.98;;;13.40;99.90;;;;;;5107775;28;20192;-68
2022/10/01 03:48:20;;;;;;;2.17;2.08;;;13.40;99.90;;;;;;5109495;28;20544;-68
2022/10/01 03:50:56;;;;;;;1.58;1.58;;;13.40;99.90;;;;;;5115152;28;20192;-67
2022/10/01 03:53:23;;;;;;;2.08;1.85;;;13.50;99.90;;;;;;5097502;28;20180;-69
2022/10/01 03:55:50;;;;;;;2.17;1.90;;;13.50;99.90;;;;;;5093830;28;20188;-68
2022/10/01 03:58:17;;;;;;;2.42;2.20;;;13.50;99.90;;;;;;5086284;28;20273;-67
2022/10/01 04:00:44;;;;;;;3.28;1.80;;;13.60;99.90;;;;;;5082844;28;20199;-68
2022/10/01 04:03:10;;;;;;;2.45;1.95;;;13.60;99.90;;;;;;5105097;27;20664;-68
2022/10/01 04:05:35;;;;;;;1.85;1.75;;;13.50;99.90;;;;;;5103868;27;20198;-68
2022/10/01 04:08:01;;;;;;;1.98;1.80;;;13.60;99.90;;;;;;5098018;27;20215;-68
2022/10/01 04:10:27;;;;;;;2.15;1.95;;;13.60;99.90;;;;;;5043321;28;20716;-68
2022/10/01 04:12:53;;;;;;;1.95;1.58;;;13.60;99.90;;;;;;5097316;28;20258;-68
2022/10/01 04:15:21;;;;;;;2.63;2.00;;;13.70;99.90;;;;;;5089123;27;20200;-68
2022/10/01 04:17:47;;;;;;;2.08;1.88;;;13.70;99.90;;;;;;5096935;27;20279;-68
2022/10/01 04:20:13;;;;;;;1.67;1.55;;;13.70;99.90;;;;;;5097786;28;20184;-68
2022/10/01 04:22:40;;;;;;;1.63;1.40;;;13.80;99.90;;;;;;5095237;28;20272;-68
2022/10/01 04:25:10;;;;;;;1.60;1.50;;;13.70;99.90;;;;;;5111851;27;20241;-68
2022/10/01 04:27:40;;;;;;;1.75;1.65;;;13.80;99.90;;;;;;5109558;27;20565;-68
2022/10/01 04:30:07;;;;;;;1.38;1.27;;;13.90;99.90;;;;;;5111030;27;20241;-68
2022/10/01 04:32:33;;;;;;;1.58;1.50;;;13.90;99.90;;;;;;5096999;28;20659;-68
2022/10/01 04:34:59;;;;;;;1.48;1.10;;;14.00;99.90;;;;;;5094790;28;20180;-68
2022/10/01 04:37:28;;;;;;;2.28;1.73;;;14.10;99.90;;;;;;5074366;28;20271;-68
2022/10/01 04:39:53;;;;;;;1.15;1.13;;;14.00;99.90;;;;;;5074244;28;20287;-69
2022/10/01 04:42:20;;;;;;;2.10;1.58;;;14.00;99.90;;;;;;5079556;28;20732;-69
2022/10/01 04:44:46;;;;;;;1.80;1.67;;;14.00;99.90;;;;;;5114359;28;20196;-66
2022/10/01 04:47:11;;;;;;;2.17;1.73;;;14.00;99.90;;;;;;5088994;28;20275;-67
2022/10/01 04:49:37;;;;;;;1.67;1.58;;;14.00;99.90;;;;;;5114194;27;20565;-66
2022/10/01 04:52:03;;;;;;;1.98;1.27;;;14.10;99.90;;;;;;5079313;28;20235;-66
2022/10/01 04:54:29;;;;;;;1.95;1.77;;;14.10;99.90;;;;;;5107859;28;20181;-66
2022/10/01 04:56:56;;;;;;;2.42;1.95;;;14.10;99.90;;;;;;5087263;27;20228;-66
2022/10/01 04:59:22;;;;;;;2.00;1.80;;;14.20;99.90;;;;;;5094944;28;20192;-66
2022/10/01 05:01:47;;;;;;;2.10;1.92;;;14.20;99.90;;;;;;5088685;28;20204;-66
2022/10/01 05:04:13;;;;;;;3.22;1.88;;;14.20;99.90;;;;;;5091294;28;20255;-67
2022/10/01 05:06:40;;;;;;;1.88;1.77;;;14.20;99.90;;;;;;5090014;28;20187;-67
2022/10/01 05:09:05;;;;;;;2.95;1.88;;;14.20;99.90;;;;;;5107517;28;20196;-67
2022/10/01 05:11:33;;;;;;;1.80;1.70;;;14.20;99.90;;;;;;5110339;28;20199;-66
2022/10/01 05:13:59;;;;;;;2.40;2.20;;;14.20;99.90;;;;;;5123502;27;20187;-67
2022/10/01 05:16:24;;;;;;;2.05;1.95;;;14.10;99.90;;;;;;5080696;28;20190;-66
2022/10/01 05:18:50;;;;;;;3.42;2.10;;;14.20;99.90;;;;;;5060166;28;20180;-67
2022/10/01 05:21:16;;;;;;;2.83;2.55;;;14.20;99.90;;;;;;5104669;27;20218;-67
2022/10/01 05:23:42;;;;;;;2.35;2.00;;;14.20;99.90;;;;;;5120003;27;20204;-67
2022/10/01 05:26:07;;;;;;;2.47;2.28;;;14.20;99.90;;;;;;5094915;28;20295;-67
2022/10/01 05:28:34;;;;;;;3.08;1.88;;;14.30;99.90;;;;;;5102003;28;20233;-66
2022/10/01 05:31:01;;;;;;;2.30;2.10;;;14.40;99.90;;;;;;5100427;28;20241;-66
2022/10/01 05:33:32;;;;;;;3.85;2.47;;;14.40;99.90;;;;;;5104726;27;20238;-66
2022/10/01 05:35:59;;;;;;;2.55;2.35;;;14.30;99.90;;;;;;5087020;28;20299;-67
2022/10/01 05:38:24;;;;;;;1.92;1.80;;;14.30;99.90;;;;;;5114028;27;20690;-67
2022/10/01 05:40:50;;;;;;;2.40;2.20;;;14.30;99.90;;;;;;5112952;27;20192;-67
2022/10/01 05:43:17;;;;;;;2.58;2.38;;;14.30;99.90;;;;;;5095898;28;20215;-66
2022/10/01 05:45:43;;;;;;;2.45;2.20;;;14.30;99.90;;;;;;5110317;27;20187;-68
2022/10/01 05:48:09;;;;;;;3.78;2.28;;;14.30;99.90;;;;;;5107924;28;20740;-67
2022/10/01 05:50:39;;;;;;;2.30;2.10;;;14.40;99.90;;;;;;5075533;28;20536;-69
2022/10/01 05:53:05;;;;;;;5.95;2.42;;;14.30;99.90;;;;;;5094884;28;20194;-67
2022/10/01 05:55:33;;;;;;;2.58;2.13;;;14.30;99.90;;;;;;5082622;28;20188;-67
2022/10/01 05:58:10;;;;;;;1.83;1.70;;;14.20;99.90;;;;;;5078457;28;20192;-67
2022/10/01 06:00:38;;;;;;;3.00;1.70;;;14.30;99.90;;;;;;5100734;27;20185;-67
2022/10/01 06:03:05;;;;;;;2.28;2.10;;;14.30;99.90;;;;;;5113744;28;20199;-67
2022/10/01 06:05:32;;;;;;;2.83;2.05;;;14.40;99.90;;;;;;5104707;27;20558;-67
2022/10/01 06:07:59;;;;;;;3.75;2.13;;;14.50;99.90;;;;;;5097253;28;20187;-67
2022/10/01 06:10:26;;;;;;;8.57;2.33;;;14.50;99.90;;;;;;5095211;28;20194;-67
2022/10/01 06:13:00;;;;;;;2.50;1.83;;;14.40;99.90;;;;;;5112789;28;20187;-67
2022/10/01 06:15:26;;;;;;;2.20;2.10;;;14.20;99.90;;;;;;5094922;28;20184;-67
2022/10/01 06:17:52;;;;;;;6.43;2.88;;;14.20;99.90;;;;;;5105036;28;20187;-67
2022/10/01 06:20:19;;;;;;;2.10;1.90;;;14.20;99.90;;;;;;5091568;28;20629;-67
2022/10/01 06:22:52;;;;;;;2.10;2.00;;;14.30;99.90;;;;;;5108419;28;20268;-67
2022/10/01 06:25:18;;;;;;;2.17;1.90;;;14.50;99.90;;;;;;5104026;28;20188;-67
2022/10/01 06:27:44;;;;;;;2.92;1.73;;;14.60;99.90;;;;;;5110725;28;20184;-67
2022/10/01 06:30:10;;;;;;;2.20;2.00;;;14.70;99.90;;;;;;5066179;28;20216;-68
2022/10/01 06:32:36;;;;;;;4.50;2.80;;;14.80;99.90;;;;;;5097989;28;20237;-67
2022/10/01 06:35:03;;;;;;;3.25;2.92;;;15.00;99.90;;;;;;5113267;28;20184;-67
2022/10/01 06:37:28;;;;;;;5.18;2.13;;;15.00;99.90;;;;;;5076812;28;20172;-67
2022/10/01 06:39:54;;;;;;;1.90;1.80;;;15.10;99.90;;;;;;5117531;28;20198;-67
2022/10/01 06:42:21;;;;;;;5.63;2.70;;;15.10;99.90;;;;;;5082093;28;20208;-67
2022/10/01 06:44:46;;;;;;;3.75;2.20;;;15.10;99.90;;;;;;5082155;28;20226;-67
2022/10/01 06:47:12;;;;;;;3.08;1.98;;;15.00;99.90;;;;;;5087366;28;20660;-67
2022/10/01 06:49:38;;;;;;;4.70;3.20;;;15.00;99.90;;;;;;5078956;28;20233;-66
2022/10/01 06:54:47;;;;;;;2.15;1.95;;;15.20;99.90;;;;;;5078522;28;20564;-67
2022/10/01 06:57:13;;;;;;;1.90;1.80;;;15.10;99.90;;;;;;5092756;28;20188;-67
2022/10/01 06:59:38;;;;;;;3.67;1.92;;;15.20;99.90;;;;;;5093199;28;20640;-67
2022/10/01 07:02:04;;;;;;;3.22;2.33;;;15.30;99.90;;;;;;5093879;28;20644;-67
2022/10/01 07:04:30;;;;;;;4.47;2.72;;;15.70;99.90;;;;;;5098538;28;20188;-66
2022/10/01 07:06:56;;;;;;;4.32;2.33;;;15.90;99.90;;;;;;5111651;28;20187;-67
2022/10/01 07:09:25;;;;;;;5.88;3.50;;;15.90;99.90;;;;;;5076631;28;20176;-67
2022/10/01 07:11:56;;;;;;;4.97;3.53;;;15.80;99.90;;;;;;5092116;28;20207;-67
2022/10/01 07:14:21;;;;;;;5.78;3.08;;;15.70;99.90;;;;;;5095955;28;20188;-67
2022/10/01 07:16:47;;;;;;;7.72;4.20;;;15.70;99.90;;;;;;5093056;28;20188;-67
2022/10/01 07:19:13;;;;;;;10.18;4.55;;;16.00;99.90;;;;;;5108167;28;20188;-67
2022/10/01 07:21:38;;;;;;;5.07;4.53;;;16.10;99.90;;;;;;5094230;28;20613;-67
2022/10/01 07:24:04;;;;;;;6.05;4.75;;;16.20;99.90;;;;;;5077801;28;20550;-67
2022/10/01 07:26:30;;;;;;;4.07;3.35;;;16.20;99.90;;;;;;5066763;28;20200;-68
2022/10/01 07:28:55;;;;;;;5.20;3.25;;;16.20;99.90;;;;;;5108382;28;20649;-67
2022/10/01 07:31:22;;;;;;;9.20;3.75;;;16.40;99.90;;;;;;5050798;28;20191;-67
2022/10/01 07:33:48;;;;;;;3.78;3.35;;;16.40;99.90;;;;;;5109397;28;20287;-67
2022/10/01 07:36:14;;;;;;;4.05;3.65;;;16.50;99.90;;;;;;5090566;28;20291;-67
2022/10/01 07:38:42;;;;;;;10.52;3.58;;;16.40;99.90;;;;;;5106454;28;20260;-67
2022/10/01 07:41:08;;;;;;;5.40;4.15;;;16.60;99.90;;;;;;5086782;28;20200;-67
2022/10/01 07:43:35;;;;;;;4.07;3.00;;;16.70;99.90;;;;;;5073686;28;20211;-67
2022/10/01 07:46:02;;;;;;;5.65;3.15;;;16.80;99.90;;;;;;5110387;28;20199;-67
2022/10/01 07:48:27;;;;;;;10.50;3.13;;;16.90;99.90;;;;;;5105777;28;20172;-67
2022/10/01 07:50:53;;;;;;;9.73;3.70;;;17.30;99.90;;;;;;5112413;27;20203;-67
2022/10/01 07:53:19;;;;;;;3.60;2.95;;;17.80;99.90;;;;;;5070553;28;20226;-67
2022/10/01 07:55:45;;;;;;;3.55;2.42;;;18.70;99.90;;;;;;5087123;28;20187;-67
2022/10/01 07:58:11;;;;;;;6.07;3.10;;;18.70;99.90;;;;;;5101474;27;20185;-67
2022/10/01 08:00:38;;;;;;;4.65;2.78;;;18.70;99.90;;;;;;5079023;28;20187;-67
2022/10/01 08:03:04;;;;;;;7.55;4.07;;;19.00;99.90;;;;;;5101624;28;20219;-67
2022/10/01 08:05:33;;;;;;;8.60;3.80;;;19.60;99.90;;;;;;5078390;28;20177;-67
2022/10/01 08:08:00;;;;;;;16.10;3.67;;;20.50;99.90;;;;;;5110134;28;20276;-67
2022/10/01 08:10:27;;;;;;;2.50;1.95;;;21.60;99.90;;;;;;5091024;28;20317;-66
2022/10/01 08:13:00;;;;;;;2.80;2.47;;;21.80;99.90;;;;;;5093342;27;20652;-66
2022/10/01 08:15:26;;;;;;;8.90;2.40;;;21.80;99.90;;;;;;5115468;28;20187;-67
2022/10/01 08:17:51;;;;;;;3.13;2.28;;;21.90;99.90;;;;;;5078268;28;20184;-65
2022/10/01 08:20:18;;;;;;;9.27;2.85;;;21.80;99.90;;;;;;5084840;28;20188;-64
2022/10/01 08:22:43;;;;;;;3.80;2.65;;;21.00;99.90;;;;;;5089083;27;20291;-64
2022/10/01 08:25:09;;;;;;;2.63;1.83;;;20.80;99.90;;;;;;5103443;27;20267;-64
2022/10/01 08:27:35;;;;;;;4.15;2.10;;;20.60;99.90;;;;;;5077054;27;20175;-64
2022/10/01 08:30:01;;;;;;;2.83;1.90;;;20.30;99.90;;;;;;5076404;28;20188;-64
2022/10/01 08:32:27;;;;;;;6.80;2.03;;;19.90;99.90;;;;;;5077450;28;20177;-65
2022/10/01 08:34:54;;;;;;;11.65;4.03;;;19.60;99.90;;;;;;5099409;27;20180;-65
2022/10/01 08:37:24;;;;;;;6.32;3.17;;;19.40;99.90;;;;;;5098133;27;20188;-65
2022/10/01 08:39:49;;;;;;;3.47;2.28;;;19.30;99.90;;;;;;5099453;27;20200;-65
2022/10/01 08:42:39;;;;;;;6.13;2.45;;;19.20;99.90;;;;;;5075968;28;20690;-65
2022/10/01 08:45:15;;;;;;;6.80;2.50;;;19.10;99.90;;;;;;5099113;27;20180;-65
2022/10/01 08:47:45;;;;;;;5.47;2.42;;;19.20;99.90;;;;;;5084352;28;20263;-64
2022/10/01 08:50:33;;;;;;;7.15;2.92;;;19.20;99.90;;;;;;5097131;27;20255;-65
2022/10/01 08:53:06;;;;;;;5.30;2.47;;;19.20;99.90;;;;;;5104728;28;20255;-65
2022/10/01 08:55:36;;;;;;;14.38;2.72;;;19.00;99.90;;;;;;5100525;28;20180;-66
2022/10/01 08:58:04;;;;;;;6.57;2.47;;;19.00;99.90;;;;;;5097158;27;20184;-64
2022/10/01 09:00:32;;;;;;;5.70;2.03;;;19.00;99.90;;;;;;5101236;28;20204;-64
2022/10/01 09:03:03;;;;;;;7.45;3.00;;;18.90;99.90;;;;;;5100013;27;20195;-64
2022/10/01 09:06:07;;;;;;;9.65;2.80;;;18.90;99.90;;;;;;5086829;28;20704;-64
2022/10/01 09:08:48;;;;;;;5.95;3.00;;;18.90;99.90;;;;;;5113986;27;20172;-64
2022/10/01 09:11:31;;;;;;;7.65;2.67;;;18.90;99.90;;;;;;5114426;27;20248;-64
2022/10/01 09:14:06;;;;;;;7.13;3.15;;;19.10;99.90;;;;;;5109279;27;20221;-62
2022/10/01 09:17:08;;;;;;;7.85;3.58;;;19.10;99.90;;;;;;5097725;28;20655;-63
2022/10/01 09:19:55;;;;;;;7.85;3.03;;;19.00;99.90;;;;;;5114242;27;20175;-62
2022/10/01 09:22:30;;;;;;;7.43;3.17;;;18.80;99.90;;;;;;5098056;27;20196;-62
2022/10/01 09:25:08;;;;;;;6.45;3.80;;;18.60;99.90;;;;;;5106916;27;20272;-64
2022/10/01 09:27:36;;;;;;;12.07;4.10;;;18.30;99.90;;;;;;5098881;27;20184;-64
2022/10/01 09:30:06;;;;;;;12.50;3.85;;;18.20;99.90;;;;;;5104483;27;20214;-63
2022/10/01 09:32:48;;;;;;;10.30;3.45;;;18.10;99.90;;;;;;5106845;27;20172;-63
2022/10/01 09:35:47;;;;;;;8.15;3.05;;;18.00;99.90;;;;;;5077060;28;20180;-64
2022/10/01 09:38:17;;;;;;;14.98;4.20;;;18.00;99.90;;;;;;5098634;27;20543;-63
2022/10/01 09:40:54;;;;;;;10.57;3.50;;;18.00;99.90;;;;;;5101229;27;20253;-65
2022/10/01 09:43:23;;;;;;;10.10;3.65;;;18.00;99.90;;;;;;5098922;27;20311;-63
2022/10/01 09:45:50;;;;;;;8.38;3.95;;;18.10;99.90;;;;;;5109032;27;20665;-64
2022/10/01 09:48:49;;;;;;;4.55;3.10;;;18.10;99.90;;;;;;5102491;27;20177;-64
2022/10/01 09:51:27;;;;;;;13.27;4.32;;;18.10;99.90;;;;;;5085471;28;20540;-64
2022/10/01 09:54:08;;;;;;;5.07;3.42;;;18.10;99.90;;;;;;5103377;28;20690;-66
2022/10/01 09:56:41;;;;;;;6.40;3.60;;;18.10;99.90;;;;;;5097992;27;20184;-64
2022/10/01 09:59:14;;;;;;;7.63;3.60;;;18.20;99.90;;;;;;5097136;27;20180;-65
2022/10/01 10:01:52;;;;;;;6.65;3.05;;;18.30;99.90;;;;;;5096411;28;20172;-64
2022/10/01 10:04:22;;;;;;;6.05;3.13;;;18.40;99.90;;;;;;5099762;27;20559;-64
2022/10/01 10:06:49;;;;;;;7.43;3.15;;;18.60;99.90;;;;;;5084943;28;20184;-65
2022/10/01 10:09:20;;;;;;;17.83;3.65;;;19.00;99.90;;;;;;5092707;28;20195;-66
2022/10/01 10:11:47;;;;;;;4.75;3.53;;;19.30;99.90;;;;;;5077437;28;20642;-65
2022/10/01 10:14:23;;;;;;;9.68;2.90;;;19.50;99.90;;;;;;5088141;28;20531;-65
2022/10/01 10:16:50;;;;;;;8.82;3.10;;;19.40;99.90;;;;;;5112592;27;20183;-66
2022/10/01 10:19:50;;;;;;;3.92;2.88;;;19.40;99.90;;;;;;5090771;28;20272;-64
2022/10/01 10:22:34;;;;;;;7.38;2.95;;;19.30;99.90;;;;;;5101026;28;20210;-64
2022/10/01 10:25:18;;;;;;;7.93;3.00;;;19.10;99.90;;;;;;5093344;28;20649;-65
2022/10/01 10:27:54;;;;;;;5.00;3.38;;;19.20;99.90;;;;;;5105696;28;20180;-64
2022/10/01 10:30:23;;;;;;;9.82;3.92;;;19.30;99.90;;;;;;5097147;28;20192;-65
2022/10/01 10:32:50;;;;;;;6.18;2.92;;;19.20;99.90;;;;;;5096339;27;20183;-64
2022/10/01 10:35:27;;;;;;;5.22;2.80;;;19.00;99.90;;;;;;5095932;28;20177;-64
2022/10/01 10:37:56;;;;;;;8.00;3.38;;;19.00;99.90;;;;;;5109520;28;20179;-64
2022/10/01 10:40:39;;;;;;;5.60;3.28;;;19.00;99.90;;;;;;5112614;28;20184;-64
2022/10/01 10:43:15;;;;;;;9.90;3.60;;;18.90;99.90;;;;;;5106932;28;20290;-64
2022/10/01 10:45:45;;;;;;;10.65;4.20;;;19.00;99.90;;;;;;5107276;28;20236;-63
2022/10/01 10:48:17;;;;;;;6.45;3.60;;;18.90;99.90;;;;;;5081466;28;20181;-64
2022/10/01 10:50:45;;;;;;;13.32;3.08;;;19.00;99.90;;;;;;5108363;28;20177;-64
2022/10/01 10:53:20;;;;;;;3.45;2.85;;;18.90;99.90;;;;;;5108296;28;20211;-64
2022/10/01 10:55:59;;;;;;;7.43;3.20;;;18.90;99.90;;;;;;5091463;28;20188;-63
2022/10/01 10:58:30;;;;;;;7.57;2.80;;;19.00;99.90;;;;;;5113421;28;20179;-64
2022/10/01 11:01:10;;;;;;;9.00;3.83;;;18.90;99.90;;;;;;5111476;28;20183;-64
2022/10/01 11:03:40;;;;;;;6.78;3.35;;;18.70;99.90;;;;;;5079346;28;20207;-64
2022/10/01 11:06:12;;;;;;;6.47;3.55;;;18.60;99.90;;;;;;5075777;28;20253;-64
2022/10/01 11:08:38;;;;;;;8.65;3.80;;;18.40;99.90;;;;;;5097486;28;20185;-64
2022/10/01 11:11:12;;;;;;;6.93;4.45;;;18.40;99.90;;;;;;5109244;28;20203;-63
2022/10/01 11:13:59;;;;;;;12.10;4.20;;;18.40;99.90;;;;;;5099369;28;20538;-64
2022/10/01 11:17:02;;;;;;;6.63;4.07;;;18.40;99.90;;;;;;5094025;28;20169;-64
2022/10/01 11:19:43;;;;;;;10.50;3.70;;;18.40;99.90;;;;;;5094496;28;20179;-64
2022/10/01 11:22:13;;;;;;;5.45;3.40;;;18.40;99.90;;;;;;5086513;28;20207;-65
2022/10/01 11:24:51;;;;;;;8.55;3.80;;;18.40;99.90;;;;;;5112986;28;20180;-64
2022/10/01 11:27:26;;;;;;;9.40;4.63;;;18.50;99.90;;;;;;5102965;28;20200;-64
2022/10/01 11:29:51;;;;;;;5.50;3.40;;;18.60;99.90;;;;;;5092940;28;20228;-64
2022/10/01 11:32:26;;;;;;;8.02;4.13;;;18.80;99.90;;;;;;5112265;28;20180;-63
2022/10/01 11:35:29;;;;;;;4.80;4.13;;;19.00;99.90;;;;;;5108137;28;20191;-63
2022/10/01 11:38:12;;;;;;;9.48;3.00;;;19.00;99.90;;;;;;5092376;28;20188;-63
2022/10/01 11:41:12;;;;;;;12.93;4.22;;;19.00;99.90;;;;;;5115940;27;20270;-63
2022/10/01 11:43:44;;;;;;;8.93;3.38;;;19.10;99.90;;;;;;5098393;27;20216;-63
2022/10/01 11:46:52;;;;;;;5.53;2.40;;;19.40;99.90;;;;;;5112229;27;20202;-64
2022/10/01 11:49:17;;;;;;;5.55;3.22;;;19.50;99.90;;;;;;5081251;28;20191;-63
2022/10/01 11:51:51;;;;;;;2.55;2.03;;;19.50;99.90;;;;;;5104644;27;20184;-63
2022/10/01 11:54:23;;;;;;;5.00;1.95;;;19.50;99.90;;;;;;5108805;27;20184;-64
2022/10/01 11:59:48;;;;;;;10.93;2.53;;;19.40;99.90;;;;;;5115674;27;20557;-63
2022/10/01 12:02:17;;;;;;;6.03;2.47;;;19.50;99.90;;;;;;5100513;28;20207;-64
2022/10/01 12:04:48;;;;;;;4.85;2.38;;;19.60;99.90;;;;;;5112047;28;20208;-64
2022/10/01 12:07:19;;;;;;;8.88;2.35;;;19.60;99.90;;;;;;5105981;27;20539;-63
2022/10/01 12:09:54;;;;;;;6.25;2.08;;;19.40;99.90;;;;;;5091648;27;20619;-64
2022/10/01 12:12:28;;;;;;;7.40;2.72;;;19.50;99.90;;;;;;5109558;27;20513;-63
2022/10/01 12:14:54;;;;;;;3.08;2.03;;;19.30;99.90;;;;;;5107798;28;20179;-65
2022/10/01 12:17:39;;;;;;;2.88;2.28;;;19.50;99.90;;;;;;5094859;27;20556;-64
2022/10/01 12:20:37;;;;;;;7.30;3.50;;;19.50;99.90;;;;;;5108689;28;20187;-63
2022/10/01 12:23:06;;;;;;;7.72;2.45;;;19.60;99.90;;;;;;5081747;28;20208;-65
2022/10/01 12:26:03;;;;;;;4.20;2.42;;;19.80;99.90;;;;;;5109772;27;20179;-63
2022/10/01 12:28:47;;;;;;;4.63;2.75;;;19.70;99.90;;;;;;5103621;27;20189;-65
2022/10/01 12:31:25;;;;;;;6.70;1.98;;;19.80;99.90;;;;;;5106871;27;20534;-64
2022/10/01 12:33:54;;;;;;;3.53;3.05;;;19.80;99.90;;;;;;5099283;27;20212;-64
2022/10/01 12:36:40;;;;;;;4.45;2.10;;;19.80;99.90;;;;;;5102597;27;20191;-64
2022/10/01 12:39:15;;;;;;;8.85;2.45;;;19.90;99.90;;;;;;5087131;28;20227;-64
2022/10/01 12:41:46;;;;;;;6.03;2.10;;;19.90;99.90;;;;;;5095508;28;20207;-64
2022/10/01 12:44:22;;;;;;;9.18;2.35;;;20.10;99.90;;;;;;5105795;28;20553;-63
2022/10/01 12:47:12;;;;;;;5.63;2.67;;;20.20;99.90;;;;;;5108328;28;20255;-64
2022/10/01 12:49:41;;;;;;;3.28;2.22;;;20.20;99.90;;;;;;5094308;28;20176;-64
2022/10/01 12:52:06;;;;;;;1.52;1.42;;;20.00;99.90;;;;;;5106145;28;20532;-63
2022/10/01 12:54:53;;;;;;;3.58;2.45;;;20.10;99.90;;;;;;5092530;28;20191;-65
2022/10/01 12:57:54;;;;;;;6.82;2.10;;;20.00;99.90;;;;;;5109529;27;20181;-63
2022/10/01 13:00:21;;;;;;;12.65;2.30;;;19.90;99.90;;;;;;5080380;27;20190;-63
2022/10/01 13:03:05;;;;;;;7.97;1.90;;;20.00;99.90;;;;;;5114511;27;20232;-64
2022/10/01 13:05:45;;;;;;;1.30;1.05;;;19.90;99.90;;;;;;5123753;27;20598;-63
2022/10/01 13:08:16;;;;;;;8.25;1.42;;;19.80;99.90;;;;;;5112834;27;20170;-63
2022/10/01 13:11:02;;;;;;;3.30;1.15;;;19.70;99.90;;;;;;5114881;27;20231;-63
2022/10/01 13:13:33;;;;;;;3.65;1.20;;;19.60;99.90;;;;;;5111377;27;20204;-63
2022/10/01 13:16:29;;;;;;;3.38;1.58;;;19.50;99.90;;;;;;5082664;28;20215;-64